Archival Weather

Pocono Mountains Rgnl

Mount Pocono, Pennsylvania (KMPO)

Report from: Tuesday, May 21, 2024 2:53 AM EDT
Current time: Thursday, July 18, 2024 11:15 PM EDT

Current weather – Weather history – Daily summaries
Weather forecast

Temperature14.4°C (57.9°F)
Dew point13.3°C (55.9°F)
Winds 4 kts (2.1 m/s, 4.6 mph) West (260°)
Visibility10 mi. (16.1 km)
Clouds Sky clear
Altimeter30.01 in.Hg (1016 mB)
Relative humidity93 %
Density altitude65 ft. (20 m)
Sea-level pressure101.6 kPa (1016 mB, 29.99 in.Hg)
Remarks Fully automated report
Automated weather observing station with precipitation discriminator
Flight conditions Visual Meteorological Conditions
Raw dataKMPO 210653Z AUTO 26004KT 10SM CLR 14/13 A3001 RMK AO2 SLP155 T01440133
An error has occurred. This application may no longer respond until reloaded. Reload 🗙